Aktualne dane pomiarowe

Uwaga, wersja testowa! Automatyczne pobieranie danych za pomocą narzędzi lub skryptów to umożliwiających jest zabronione.

Dane meteo z obszaru Polski uzyskane na podstawie depesz SYNOP pobieranych co godzinę z NWS. Najedź myszką na symbol przedstawiony w tabeli, aby uzyskać informacje co do jego znaczenia. Prosimy pamiętać, że to testowa wersja strony, która jeszcze nie jest ukończona. Stworzono również jest krótki FAQ dotyczący korzystania z tej podstrony Anomalie temperatury w chwili obecnej odniesione są do okresu referencyjnego 1951-2016. Okres ten będzie później zmieniony na 1981-2010. Kliknij ikonę aby pobrać plik CSV. Kliknij ikonę aby wygenerować mapę synoptyczną dla danego terminu.

Wybierz Datę:    

        

Krosno (12670)

Dane terminowe dla wybranej stacji. Kliknij datę, aby otrzymać dane z tego terminu dla wszystkich stacji.

TemperaturaZachmurzenieWiatrCiśnienieOpadyPogoda
 Data t td wb tx tn tg rh  Nt Nl Cl Cm Ch ws wd g1 g2 wx mslp ppp ch 24h 12h t ww ww w1 w2  
2019-07-04 23:00:00 12.0 7.9 9.4--- 7624.0wx-3wx--31019.0 979.4 -0.7---------
2019-07-04 22:00:00 13.2 7.6 9.8--- 6926.0wx-3wx--31019.1 979.6 -0.4---------
2019-07-04 21:00:00 13.8 7.3 10.0--- 6523.0wx-wx2wx--21019.4 980.0 0.2---------
2019-07-04 20:00:00 16.6 7.1 11.2--- 5327.0wx-wx2wx--21019.1 980.1 0.0---------
2019-07-04 19:00:00 18.2 5.2 11.2--- 4230.0wx-wx1wx--11018.8 980.0 -0.3---------
2019-07-04 18:00:00 19.9 5.6 12.1 21.4 13.2- 3940.0wx-wx1wx-911018.4 979.8 -0.7- 0.012------
2019-07-04 17:00:00 20.6 5.1 12.3--- 3630.0wxwxwxwx3wx--31018.6 980.1 -1.0---------
2019-07-04 16:00:00 20.9 4.9 12.3--- 3530.0wxwxwxwx5wx---1018.7 980.3 -1.3---------
2019-07-04 15:00:00 21.3 5.3 12.6--- 3535.0wxwxwx3wx-931018.9 980.5 -1.5---------
2019-07-04 14:00:00 20.8 4.4 12.1--- 3428.0wxwxwx4wx--41019.6 981.1 -1.1---------
2019-07-04 13:00:00 20.4 4.5 11.9--- 3540.0wxwxwx5wx-951020.2 981.6 -0.9---------
2019-07-04 12:00:00 20.0 4.1 11.6--- 3529.0wxwxwx4wx---1020.6 982.0 -0.4---------
2019-07-04 11:00:00 19.6 4.6 11.6--- 3726.0wxwxwx4wx91041020.9 982.2 -0.2---------
2019-07-04 10:00:00 18.6 5.5 11.5--- 4230.0wxwxwx4wx-941021.3 982.5 0.0---------
2019-07-04 09:00:00 18.6 5.2 11.4--- 4135.0wxwxwxwx3wx--31021.2 982.4 -0.2---------
2019-07-04 08:00:00 17.5 6.5 11.4--- 4829.0wxwxwxwx3wx--31021.4 982.4 0.1---------
2019-07-04 07:00:00 15.9 8.2 11.4--- 6030.0wxwxwxwxwx2wx---1021.7 982.5 0.2---------
2019-07-04 06:00:00 13.2 8.3 10.2 18.7 8.6 7 7228.0wx-wx3wx--31022.2 982.6 0.4- 0.012----- 13.1
2019-07-04 05:00:00 11.7 7.0 8.8--- 7328.0wx-wx1wx--11022.1 982.3 0.5---------
2019-07-04 04:00:00 9.5 6.6 7.7--- 8226.0wx-wx0---01022.4 982.3 0.4---------
2019-07-04 03:00:00 8.9 6.5 7.3--- 8525.0wx-wx1wx--11022.4 982.2 0.3---------
2019-07-04 02:00:00 10.3 5.9 7.6--- 7440.0wx-wx1wx--11021.8 981.8 -0.1---------
2019-07-04 01:00:00 10.2 6.2 7.8--- 7635.0wx-wx1wx--11021.9 981.9 0.0---------
2019-07-04 00:00:00 11.4 6.1 8.3--- 7035.0wx-2wx--21021.7 981.9 0.6- 0.06------
2019-07-03 23:00:00 12.7 6.3 9.0--- 6527.0wx-2wx--21021.5 981.9 1.0---------
2019-07-03 22:00:00 14.5 4.5 9.1--- 5150.0wx-wx1wx--11021.3 981.9 1.5---------
2019-07-03 21:00:00 14.9 5.1 9.5--- 5230.0wx-wx2wx--21020.6 981.3 1.4---------
2019-07-03 20:00:00 15.5 4.3 9.5--- 4750.0wx-wx2wx--21020.1 980.9 1.0---------
2019-07-03 19:00:00 16.6 5.6 10.6--- 4850.0wxwxwxwx2wx--21019.4 980.4 0.7---------
2019-07-03 18:00:00 18.7 6.3 11.8 21.8 16.5- 4430.0wxwxwxwxwx3wx-1131018.6 979.9 0.2- 0.012------
2019-07-03 17:00:00 20.3 5.6 12.3--- 3835.0wxwxwxwx4wx--41018.4 979.9 -0.1---------
2019-07-03 16:00:00 21.1 5.5 12.6--- 3630.0wxwxwxwx5wx--51018.1 979.7 -0.6---------
2019-07-03 15:00:00 21.1 5.5 12.6--- 3635.0wxwxwx5wx-1151018.1 979.7 -0.7---------
2019-07-03 14:00:00 21.7 7.6 13.7--- 4035.0wxwxwx5wx-1151018.3 980.0 -0.4---------
2019-07-03 13:00:00 19.9 6.3 12.4--- 4130.0wxwxwx4wx--41018.9 980.3 0.0---------
2019-07-03 12:00:00 19.5 7.0 12.5--- 4430.0wxwxwx5wx-1051019.0 980.4 0.1- 0.06------
2019-07-03 11:00:00 20.0 8.4 13.3--- 4735.0wxwxwx5wx--51019.0 980.4 0.1---------
2019-07-03 10:00:00 19.9 7.4 12.8--- 4430.0wxwxwx5wx--51018.9 980.3 0.4---------
2019-07-03 09:00:00 19.3 8.4 13.0--- 4930.0wxwxwx4wx---1019.0 980.3 0.6---------
2019-07-03 08:00:00 18.4 7.9 12.4--- 5035.0wxwxwx4wx--41019.1 980.3 0.5---------
2019-07-03 07:00:00 17.9 9.1 12.7--- 5635.0wxwxwx2wx--21018.7 979.9 0.3---------
2019-07-03 06:00:00 16.5 10.0 12.5 22.3 13.0 12 6535.0wxwxwx2wx--21018.7 979.7 0.4- 0.012----- 9.0
2019-07-03 05:00:00 15.0 10.0 11.8--- 7240.0wxwxwxwxwx2wx--21019.0 979.8 0.8---------
2019-07-03 04:00:00 13.9 9.3 11.0--- 7430.0wxwxwxwx2wx--21019.0 979.6 0.9---------
2019-07-03 03:00:00 13.2 9.6 10.9--- 7930.0wxwxwxwx3wx--31018.8 979.3 0.7---------
2019-07-03 02:00:00 13.6 10.0 11.3--- 7930.0wxwxwxwx3wx--31018.4 979.0 0.5---------
2019-07-03 01:00:00 14.9 10.1 11.9--- 7330.0wxwxwx2wx--21017.9 978.7 0.2---------
2019-07-03 00:00:00 15.5 9.9 12.0--- 6935.0wxwxwx3wx--31017.7 978.6 0.4- 0.06------
1.7 ms

 

Print Friendly, PDF & Email